Time;durP1;ratioP1;P1;durP2;ratioP2;P2;SDS_P1;SDS_P2;PMS_P1;PMS_P2;Temp;Humidity;BMP_temperature;BMP_pressure;BME280_temperature;BME280_humidity;BME280_pressure;Samples;Min_cycle;Max_cycle;Signal;HPM_P1;HPM_P2
2024/02/13 00:02:11;;;;;;;25.02;17.60;;;5.70;1.00;;;;;;5107892;27;20327;-76
2024/02/13 00:04:37;;;;;;;27.67;18.27;;;5.70;1.00;;;;;;5106169;27;20289;-75
2024/02/13 00:07:04;;;;;;;23.92;17.73;;;5.70;1.00;;;;;;5113098;27;20809;-75
2024/02/13 00:09:33;;;;;;;27.10;19.73;;;5.70;1.00;;;;;;5108557;27;20372;-75
2024/02/13 00:12:00;;;;;;;27.27;18.17;;;5.70;1.00;;;;;;5105861;27;21025;-74
2024/02/13 00:14:28;;;;;;;27.27;18.38;;;5.80;1.00;;;;;;5109341;27;20594;-74
2024/02/13 00:16:56;;;;;;;23.77;17.23;;;5.80;1.00;;;;;;5107535;27;20276;-75
2024/02/13 00:19:24;;;;;;;29.13;20.60;;;5.90;1.00;;;;;;5110565;27;20235;-71
2024/02/13 00:21:51;;;;;;;29.10;20.00;;;5.90;1.00;;;;;;5109667;27;20331;-72
2024/02/13 00:24:18;;;;;;;23.77;17.27;;;5.90;1.00;;;;;;5105099;27;20231;-72
2024/02/13 00:26:47;;;;;;;24.42;18.73;;;5.90;1.00;;;;;;5110440;27;20323;-72
2024/02/13 00:29:14;;;;;;;27.52;18.67;;;6.00;1.00;;;;;;5106216;27;20237;-73
2024/02/13 00:31:42;;;;;;;25.02;18.38;;;6.00;1.00;;;;;;5105747;27;20241;-73
2024/02/13 00:34:09;;;;;;;26.20;18.23;;;6.00;1.00;;;;;;5107398;27;20268;-74
2024/02/13 00:36:36;;;;;;;27.40;19.02;;;6.00;1.00;;;;;;5106595;27;20310;-75
2024/02/13 00:39:03;;;;;;;26.48;18.42;;;6.00;1.00;;;;;;5105532;27;20235;-72
2024/02/13 00:41:30;;;;;;;28.02;19.10;;;6.00;1.00;;;;;;5106814;27;20237;-73
2024/02/13 00:43:58;;;;;;;23.15;17.52;;;6.10;1.00;;;;;;5109760;27;20243;-72
2024/02/13 00:46:25;;;;;;;24.48;17.30;;;6.10;1.00;;;;;;5105516;27;20240;-72
2024/02/13 00:48:55;;;;;;;27.17;18.42;;;6.10;1.00;;;;;;5108568;27;20727;-71
2024/02/13 00:51:22;;;;;;;20.73;15.88;;;6.00;1.00;;;;;;5107033;27;20235;-72
2024/02/13 00:53:49;;;;;;;25.55;17.92;;;6.00;1.00;;;;;;5106903;27;20242;-74
2024/02/13 00:56:16;;;;;;;26.00;17.60;;;6.00;1.00;;;;;;5108702;27;20372;-73
2024/02/13 00:58:43;;;;;;;25.00;16.65;;;6.00;1.00;;;;;;5106540;27;20282;-72
2024/02/13 01:01:12;;;;;;;25.05;16.90;;;5.90;1.00;;;;;;5107135;27;20231;-73
2024/02/13 01:03:40;;;;;;;29.52;17.77;;;5.90;1.00;;;;;;5104457;27;20235;-76
2024/02/13 01:06:07;;;;;;;22.55;17.20;;;5.80;1.00;;;;;;5105350;27;20244;-74
2024/02/13 01:08:34;;;;;;;23.20;15.90;;;5.80;1.00;;;;;;5104194;27;20239;-72
2024/02/13 01:11:01;;;;;;;24.02;17.00;;;5.80;1.00;;;;;;5103982;27;20318;-72
2024/02/13 01:13:29;;;;;;;24.63;15.98;;;5.80;1.00;;;;;;5110367;27;20288;-74
2024/02/13 01:15:57;;;;;;;21.08;15.05;;;5.80;1.00;;;;;;5098765;27;20231;-74
2024/02/13 01:18:25;;;;;;;25.77;15.57;;;5.70;1.00;;;;;;5103031;27;20242;-75
2024/02/13 01:20:52;;;;;;;23.08;15.63;;;5.70;1.00;;;;;;5101248;27;20267;-73
2024/02/13 01:23:19;;;;;;;23.08;16.20;;;5.80;1.00;;;;;;5101177;27;20270;-74
2024/02/13 01:25:46;;;;;;;20.55;14.35;;;5.80;1.00;;;;;;5104266;27;20929;-75
2024/02/13 01:28:13;;;;;;;21.20;15.80;;;5.70;1.00;;;;;;5108787;27;20329;-73
2024/02/13 01:30:41;;;;;;;21.40;15.85;;;5.70;1.00;;;;;;5105360;27;20244;-72
2024/02/13 01:33:09;;;;;;;18.10;14.20;;;5.60;1.00;;;;;;5103991;27;21021;-71
2024/02/13 01:35:42;;;;;;;22.40;16.30;;;5.60;1.00;;;;;;5105582;27;20263;-72
2024/02/13 01:38:09;;;;;;;22.23;14.27;;;5.60;1.00;;;;;;5111158;27;20281;-73
2024/02/13 01:40:36;;;;;;;19.00;14.35;;;5.60;1.00;;;;;;5107624;27;20239;-72
2024/02/13 01:43:04;;;;;;;18.33;13.75;;;5.70;1.00;;;;;;5103135;27;20243;-72
2024/02/13 01:45:31;;;;;;;21.40;13.45;;;5.70;1.00;;;;;;5105305;27;20271;-72
2024/02/13 01:48:01;;;;;;;20.70;14.82;;;5.70;1.00;;;;;;5106926;27;20523;-72
2024/02/13 01:50:28;;;;;;;22.65;14.90;;;5.80;1.00;;;;;;5105960;27;20267;-71
2024/02/13 01:52:57;;;;;;;19.25;14.32;;;5.80;1.00;;;;;;5106407;27;20235;-72
2024/02/13 01:55:25;;;;;;;17.58;13.80;;;5.90;1.00;;;;;;5106277;27;21618;-72
2024/02/13 01:57:53;;;;;;;19.90;13.93;;;5.90;1.00;;;;;;5090310;28;20240;-73
2024/02/13 02:00:21;;;;;;;19.25;14.50;;;6.00;1.00;;;;;;5106195;27;20271;-73
2024/02/13 02:02:50;;;;;;;19.08;13.30;;;6.00;1.00;;;;;;5107491;27;20362;-73
2024/02/13 02:05:17;;;;;;;18.38;14.20;;;6.00;1.00;;;;;;5103003;27;20242;-73
2024/02/13 02:07:44;;;;;;;18.27;13.10;;;6.00;1.00;;;;;;5107996;27;20304;-73
2024/02/13 02:10:15;;;;;;;18.08;13.52;;;6.00;1.00;;;;;;5104608;27;20248;-73
2024/02/13 02:12:42;;;;;;;16.17;12.25;;;6.00;1.00;;;;;;5108807;27;20299;-72
2024/02/13 02:15:10;;;;;;;17.45;13.68;;;6.10;1.00;;;;;;5109854;27;20322;-72
2024/02/13 02:17:38;;;;;;;19.92;13.57;;;6.00;1.00;;;;;;5106610;27;20237;-72
2024/02/13 02:20:07;;;;;;;18.45;13.35;;;6.00;1.00;;;;;;5110372;27;20238;-72
2024/02/13 02:22:34;;;;;;;18.27;13.40;;;6.10;1.00;;;;;;5105862;27;20255;-73
2024/02/13 02:25:01;;;;;;;17.00;12.48;;;6.10;1.00;;;;;;5103557;27;20240;-73
2024/02/13 02:27:29;;;;;;;17.73;12.70;;;6.10;1.00;;;;;;5105157;27;20234;-73
2024/02/13 02:29:56;;;;;;;16.88;12.65;;;6.10;1.00;;;;;;5103962;27;20388;-72
2024/02/13 02:32:23;;;;;;;19.48;13.43;;;6.10;1.00;;;;;;5105648;27;20796;-73
2024/02/13 02:34:51;;;;;;;15.65;12.18;;;6.10;1.00;;;;;;5104813;27;20710;-72
2024/02/13 02:37:19;;;;;;;15.98;12.52;;;6.10;1.00;;;;;;5105153;27;20240;-72
2024/02/13 02:39:46;;;;;;;14.75;12.00;;;6.10;1.00;;;;;;5100940;27;20243;-75
2024/02/13 02:42:13;;;;;;;17.08;12.38;;;6.10;1.00;;;;;;5104825;27;20236;-75
2024/02/13 02:44:41;;;;;;;18.92;12.50;;;6.10;1.00;;;;;;5104882;27;20239;-77
2024/02/13 02:47:09;;;;;;;19.00;12.52;;;6.00;1.00;;;;;;5102338;27;20326;-75
2024/02/13 02:49:37;;;;;;;18.13;12.90;;;6.00;1.00;;;;;;5104555;27;20264;-76
2024/02/13 02:52:07;;;;;;;17.42;11.32;;;6.00;1.00;;;;;;5106288;27;20791;-76
2024/02/13 02:54:36;;;;;;;20.08;12.32;;;6.00;1.00;;;;;;5105434;27;20330;-78
2024/02/13 02:57:04;;;;;;;14.60;11.10;;;6.00;1.00;;;;;;5108340;27;20711;-75
2024/02/13 02:59:31;;;;;;;15.77;10.38;;;6.00;1.00;;;;;;5106588;27;20273;-74
2024/02/13 03:02:01;;;;;;;12.90;9.70;;;6.00;1.00;;;;;;5110628;27;20282;-75
2024/02/13 03:04:28;;;;;;;15.45;9.98;;;6.00;1.00;;;;;;5104103;27;20237;-75
2024/02/13 03:06:55;;;;;;;13.65;10.52;;;6.00;1.00;;;;;;5106609;27;20301;-75
2024/02/13 03:09:23;;;;;;;15.93;11.27;;;6.00;1.00;;;;;;5105708;27;21089;-75
2024/02/13 03:11:50;;;;;;;14.20;10.23;;;6.00;1.00;;;;;;5106627;27;20290;-74
2024/02/13 03:14:17;;;;;;;12.38;10.23;;;6.00;1.00;;;;;;5104667;27;20241;-73
2024/02/13 03:16:45;;;;;;;13.38;9.40;;;5.90;1.00;;;;;;5107510;27;21478;-75
2024/02/13 03:19:14;;;;;;;16.20;9.68;;;5.90;1.00;;;;;;5111073;27;20261;-73
2024/02/13 03:21:42;;;;;;;14.75;9.85;;;5.90;1.00;;;;;;5108726;27;21226;-75
2024/02/13 03:24:09;;;;;;;12.88;9.15;;;5.90;1.00;;;;;;5108757;27;20251;-75
2024/02/13 03:26:36;;;;;;;13.63;8.90;;;5.90;1.00;;;;;;5108560;27;20237;-76
2024/02/13 03:29:03;;;;;;;11.32;8.95;;;5.90;1.00;;;;;;5108452;27;20239;-75
2024/02/13 03:31:30;;;;;;;12.90;9.57;;;5.90;1.00;;;;;;5105598;27;20258;-75
2024/02/13 03:33:58;;;;;;;12.52;8.65;;;5.90;1.00;;;;;;5111210;27;20244;-78
2024/02/13 03:36:27;;;;;;;11.23;8.00;;;5.90;1.00;;;;;;5109684;27;20242;-75
2024/02/13 03:38:54;;;;;;;11.60;8.80;;;6.00;1.00;;;;;;5106326;27;21088;-74
2024/02/13 03:41:21;;;;;;;11.05;8.30;;;6.10;1.00;;;;;;5106344;27;20395;-76
2024/02/13 03:43:49;;;;;;;12.27;8.40;;;6.10;1.00;;;;;;5104771;27;20802;-75
2024/02/13 03:46:16;;;;;;;11.57;8.60;;;6.20;1.00;;;;;;5111114;27;20732;-76
2024/02/13 03:48:43;;;;;;;11.73;9.32;;;6.20;1.00;;;;;;5106730;27;20553;-76
2024/02/13 03:51:10;;;;;;;13.80;8.38;;;6.20;1.00;;;;;;5111061;27;20242;-72
2024/02/13 03:53:38;;;;;;;11.50;8.10;;;6.30;1.00;;;;;;5106248;27;20704;-72
2024/02/13 03:56:07;;;;;;;11.82;7.80;;;6.30;1.00;;;;;;5110000;27;20275;-72
2024/02/13 03:58:34;;;;;;;10.68;7.03;;;6.40;1.00;;;;;;5108465;27;20262;-72
2024/02/13 04:01:01;;;;;;;12.20;7.30;;;6.40;1.00;;;;;;5108591;27;20242;-72
2024/02/13 04:03:28;;;;;;;11.50;7.28;;;6.40;1.00;;;;;;5109098;27;20326;-73
2024/02/13 04:05:57;;;;;;;11.32;7.13;;;6.40;1.00;;;;;;5108267;27;21110;-71
2024/02/13 04:08:24;;;;;;;10.10;7.30;;;6.50;1.00;;;;;;5105140;27;20236;-72
2024/02/13 04:10:53;;;;;;;7.55;6.28;;;6.50;1.00;;;;;;5103324;27;20249;-72
2024/02/13 04:13:20;;;;;;;10.45;6.88;;;6.50;1.00;;;;;;5109077;27;20244;-72
2024/02/13 04:15:47;;;;;;;8.05;6.38;;;6.40;1.00;;;;;;5109012;27;20243;-73
2024/02/13 04:18:16;;;;;;;10.60;7.03;;;6.40;1.00;;;;;;5109000;27;20305;-72
2024/02/13 04:20:43;;;;;;;7.35;5.72;;;6.40;1.00;;;;;;5107312;27;20236;-73
2024/02/13 04:23:10;;;;;;;9.10;6.20;;;6.40;1.00;;;;;;5109796;27;22228;-74
2024/02/13 04:25:37;;;;;;;9.05;5.90;;;6.40;1.00;;;;;;5112445;27;20337;-73
2024/02/13 04:28:06;;;;;;;10.05;6.90;;;6.40;1.00;;;;;;5109137;27;21067;-72
2024/02/13 04:30:40;;;;;;;9.48;8.48;;;6.40;1.00;;;;;;5109055;27;20299;-73
2024/02/13 04:33:08;;;;;;;7.22;5.65;;;6.40;1.00;;;;;;5108141;27;20241;-72
2024/02/13 04:35:35;;;;;;;10.75;6.28;;;6.40;1.00;;;;;;5107681;27;22770;-73
2024/02/13 04:38:03;;;;;;;11.98;6.50;;;6.40;1.00;;;;;;5107856;27;20241;-72
2024/02/13 04:40:30;;;;;;;8.55;5.63;;;6.40;1.00;;;;;;5109017;27;20315;-74
2024/02/13 04:42:57;;;;;;;6.55;5.57;;;6.40;1.00;;;;;;5107133;27;20279;-75
2024/02/13 04:45:25;;;;;;;9.63;6.00;;;6.40;1.00;;;;;;5109304;27;20334;-72
2024/02/13 04:47:52;;;;;;;7.78;5.90;;;6.40;1.00;;;;;;5096000;27;20252;-72
2024/02/13 04:50:19;;;;;;;5.70;5.10;;;6.40;1.00;;;;;;5106727;27;21208;-72
2024/02/13 04:52:47;;;;;;;8.05;5.63;;;6.30;1.00;;;;;;5105536;27;20311;-74
2024/02/13 04:55:14;;;;;;;6.82;5.45;;;6.40;1.00;;;;;;5107569;27;20633;-75
2024/02/13 04:57:41;;;;;;;9.05;5.80;;;6.30;1.00;;;;;;5097816;27;20267;-73
2024/02/13 05:00:18;;;;;;;9.18;6.40;;;6.30;1.00;;;;;;5106682;27;20321;-74
2024/02/13 05:02:50;;;;;;;7.32;5.65;;;6.30;1.00;;;;;;5104135;27;20746;-73
2024/02/13 05:08:01;;;;;;;6.20;5.50;;;6.30;1.00;;;;;;5105328;27;20237;-74
2024/02/13 05:10:28;;;;;;;6.65;5.00;;;6.40;1.00;;;;;;5107153;27;20246;-72
2024/02/13 05:12:55;;;;;;;7.68;5.38;;;6.40;1.00;;;;;;5107967;27;20236;-73
2024/02/13 05:15:22;;;;;;;8.10;6.20;;;6.30;1.00;;;;;;5102407;27;20241;-74
2024/02/13 05:17:50;;;;;;;6.68;5.60;;;6.30;1.00;;;;;;5096056;27;21901;-75
2024/02/13 05:20:18;;;;;;;7.75;5.25;;;6.20;1.00;;;;;;5106300;27;20783;-76
2024/02/13 05:22:45;;;;;;;7.82;6.45;;;6.10;1.00;;;;;;5108663;27;20957;-73
2024/02/13 05:25:13;;;;;;;6.90;5.07;;;6.10;1.00;;;;;;5109166;27;21083;-73
2024/02/13 05:27:40;;;;;;;9.23;6.07;;;6.10;1.00;;;;;;5096451;27;20352;-73
2024/02/13 05:30:09;;;;;;;8.52;5.90;;;6.10;1.00;;;;;;5104208;27;20705;-72
2024/02/13 05:32:37;;;;;;;9.80;7.43;;;6.10;1.00;;;;;;5106078;27;20244;-73
2024/02/13 05:35:06;;;;;;;9.82;7.25;;;6.00;1.00;;;;;;5108603;27;20238;-72
2024/02/13 05:37:33;;;;;;;8.07;7.28;;;6.00;1.00;;;;;;5104912;27;20240;-73
2024/02/13 05:40:04;;;;;;;15.73;6.38;;;6.00;1.00;;;;;;5110206;27;20316;-73
2024/02/13 05:42:31;;;;;;;7.38;5.88;;;6.00;1.00;;;;;;5106371;27;20723;-72
2024/02/13 05:44:58;;;;;;;9.98;6.53;;;5.90;1.00;;;;;;5108444;27;20271;-76
2024/02/13 05:47:31;;;;;;;9.60;6.80;;;6.00;1.00;;;;;;5106196;27;20374;-74
2024/02/13 05:49:59;;;;;;;7.25;6.18;;;6.10;1.00;;;;;;5105202;27;20367;-74
2024/02/13 05:52:27;;;;;;;10.05;7.28;;;6.10;1.00;;;;;;5106159;27;20424;-74
2024/02/13 05:54:55;;;;;;;7.70;6.88;;;6.10;1.00;;;;;;5106160;27;20327;-72
2024/02/13 05:57:22;;;;;;;8.18;7.13;;;6.20;1.00;;;;;;5086863;27;20232;-74
2024/02/13 05:59:49;;;;;;;9.20;7.38;;;6.20;1.00;;;;;;5102411;27;20241;-74
2024/02/13 06:02:17;;;;;;;8.43;6.97;;;6.20;1.00;;;;;;5104368;27;20234;-73
2024/02/13 06:04:45;;;;;;;10.80;8.02;;;6.20;1.00;;;;;;5104718;27;20225;-74
2024/02/13 06:07:13;;;;;;;9.73;6.60;;;6.30;1.00;;;;;;5103659;27;20245;-73
2024/02/13 06:09:42;;;;;;;11.60;8.65;;;6.40;1.00;;;;;;5101834;27;20240;-73
2024/02/13 06:12:10;;;;;;;13.10;8.70;;;6.40;1.00;;;;;;5090502;27;20311;-79
2024/02/13 06:14:37;;;;;;;8.55;6.68;;;6.30;1.00;;;;;;5084844;28;20239;-79
2024/02/13 06:17:04;;;;;;;8.63;7.57;;;6.20;1.00;;;;;;5086020;28;20238;-80
2024/02/13 06:19:31;;;;;;;13.32;8.93;;;6.20;1.00;;;;;;5086939;27;21167;-79
2024/02/13 06:21:58;;;;;;;10.40;7.45;;;6.20;1.00;;;;;;5088109;28;21143;-78
2024/02/13 06:24:25;;;;;;;10.48;8.70;;;6.20;1.00;;;;;;5088652;28;20294;-79
2024/02/13 06:26:54;;;;;;;8.83;7.90;;;6.20;1.00;;;;;;5086485;28;23384;-81
2024/02/13 06:29:22;;;;;;;15.35;7.90;;;6.20;1.00;;;;;;5085585;28;20556;-81
2024/02/13 06:31:52;;;;;;;9.07;7.75;;;6.20;1.00;;;;;;5088144;27;20233;-79
2024/02/13 06:34:19;;;;;;;13.73;8.60;;;6.30;1.00;;;;;;5087307;28;21068;-81
2024/02/13 06:36:47;;;;;;;9.88;7.82;;;6.30;1.00;;;;;;5087795;28;20241;-79
2024/02/13 06:39:20;;;;;;;11.68;8.38;;;6.40;1.00;;;;;;5086572;28;21023;-76
2024/02/13 06:41:48;;;;;;;11.90;8.80;;;6.40;1.00;;;;;;5091406;28;20236;-80
2024/02/13 06:44:22;;;;;;;13.93;10.00;;;6.40;1.00;;;;;;5088904;27;20228;-80
2024/02/13 06:46:49;;;;;;;14.90;9.68;;;6.40;1.00;;;;;;5089285;28;20243;-79
2024/02/13 06:49:16;;;;;;;13.02;8.68;;;6.40;1.00;;;;;;5093314;28;20297;-79
2024/02/13 06:51:43;;;;;;;11.30;8.52;;;6.40;1.00;;;;;;5088548;28;20269;-79
2024/02/13 06:54:10;;;;;;;10.65;8.73;;;6.40;1.00;;;;;;5090483;28;20282;-78
2024/02/13 06:56:38;;;;;;;14.50;10.00;;;6.50;1.00;;;;;;5086734;28;20324;-78
2024/02/13 06:59:07;;;;;;;9.40;8.50;;;6.40;1.00;;;;;;5093062;28;20320;-80
2024/02/13 07:01:36;;;;;;;15.50;9.32;;;6.40;1.00;;;;;;5064222;28;20270;-80
2024/02/13 07:04:05;;;;;;;15.43;9.10;;;6.40;1.00;;;;;;5089453;27;20283;-79
2024/02/13 07:06:32;;;;;;;12.23;9.05;;;6.50;1.00;;;;;;5087792;28;20309;-80
2024/02/13 07:08:59;;;;;;;10.30;8.68;;;6.60;1.00;;;;;;5088224;28;20236;-79
2024/02/13 07:11:26;;;;;;;16.25;9.55;;;6.60;1.00;;;;;;5086797;28;20247;-80
2024/02/13 07:13:53;;;;;;;14.30;9.30;;;6.60;1.00;;;;;;5089846;28;20262;-78
2024/02/13 07:16:21;;;;;;;12.73;11.30;;;6.50;1.00;;;;;;5090586;28;20241;-77
2024/02/13 07:18:52;;;;;;;11.50;8.90;;;6.50;1.00;;;;;;5089216;28;20543;-79
2024/02/13 07:21:19;;;;;;;10.75;8.40;;;6.50;1.00;;;;;;5087056;27;21363;-75
2024/02/13 07:23:46;;;;;;;10.70;9.10;;;6.50;1.00;;;;;;5088554;27;21011;-76
2024/02/13 07:26:14;;;;;;;15.18;10.15;;;6.60;1.00;;;;;;5086307;28;20487;-74
2024/02/13 07:28:42;;;;;;;16.40;9.68;;;6.60;1.00;;;;;;5086023;28;20267;-74
2024/02/13 07:31:10;;;;;;;12.80;9.00;;;6.60;1.00;;;;;;5083995;28;20249;-75
2024/02/13 07:33:38;;;;;;;12.10;8.47;;;6.60;1.00;;;;;;5084481;28;20230;-73
2024/02/13 07:36:11;;;;;;;13.35;9.18;;;6.60;1.00;;;;;;5068054;28;20482;-76
2024/02/13 07:38:38;;;;;;;10.98;8.68;;;6.50;1.00;;;;;;5091063;28;20303;-74
2024/02/13 07:41:06;;;;;;;15.33;9.33;;;6.60;1.00;;;;;;5090277;27;20247;-73
2024/02/13 07:43:33;;;;;;;9.63;7.87;;;6.60;1.00;;;;;;5088100;27;20470;-74
2024/02/13 07:46:00;;;;;;;23.80;15.18;;;6.70;1.00;;;;;;5090419;27;20587;-74
2024/02/13 07:48:27;;;;;;;10.43;8.23;;;6.80;1.00;;;;;;5088696;28;20339;-74
2024/02/13 07:50:57;;;;;;;13.88;9.10;;;6.80;1.00;;;;;;5090012;27;20332;-74
2024/02/13 07:53:26;;;;;;;10.00;8.70;;;6.90;1.00;;;;;;5089928;28;20249;-74
2024/02/13 07:55:54;;;;;;;13.13;9.80;;;6.90;1.00;;;;;;5088563;28;20499;-74
2024/02/13 07:58:22;;;;;;;11.05;8.80;;;7.00;1.00;;;;;;5091655;28;20264;-73
2024/02/13 08:00:50;;;;;;;25.10;10.90;;;7.10;1.00;;;;;;5070771;28;20322;-74
2024/02/13 08:03:17;;;;;;;10.25;8.20;;;7.20;1.00;;;;;;5088488;28;20264;-75
2024/02/13 08:05:45;;;;;;;12.90;9.93;;;7.20;1.00;;;;;;5087559;27;20236;-73
2024/02/13 08:08:12;;;;;;;16.47;9.90;;;7.30;1.00;;;;;;5089930;28;20843;-73
2024/02/13 08:10:42;;;;;;;10.00;8.57;;;7.30;1.00;;;;;;5091864;27;20473;-74
2024/02/13 08:13:09;;;;;;;17.42;10.40;;;7.30;1.00;;;;;;5107474;27;20454;-73
2024/02/13 08:15:43;;;;;;;13.35;9.30;;;7.40;1.00;;;;;;5107199;27;20417;-74
2024/02/13 08:18:12;;;;;;;11.83;9.73;;;7.40;1.00;;;;;;5106380;27;20233;-73
2024/02/13 08:20:39;;;;;;;14.00;9.52;;;7.50;1.00;;;;;;5106578;27;20526;-73
2024/02/13 08:23:06;;;;;;;10.57;8.23;;;7.60;1.00;;;;;;5084938;27;20262;-74
2024/02/13 08:25:33;;;;;;;12.63;9.37;;;7.60;1.00;;;;;;5105697;27;20482;-74
2024/02/13 08:28:01;;;;;;;17.90;9.00;;;7.60;1.00;;;;;;5109278;27;20519;-74
2024/02/13 08:30:30;;;;;;;11.48;9.27;;;7.80;1.00;;;;;;5105412;27;20550;-78
2024/02/13 08:32:58;;;;;;;13.13;9.37;;;7.80;1.00;;;;;;5107261;27;20239;-80
2024/02/13 08:35:25;;;;;;;16.53;9.87;;;7.80;1.00;;;;;;5110510;27;20496;-81
2024/02/13 08:37:52;;;;;;;9.68;8.40;;;7.80;1.00;;;;;;5106395;27;21182;-80
2024/02/13 08:40:20;;;;;;;12.30;9.80;;;7.80;1.00;;;;;;5106313;27;20239;-80
2024/02/13 08:42:47;;;;;;;13.10;9.60;;;8.00;1.00;;;;;;5111755;27;20957;-80
2024/02/13 08:45:15;;;;;;;21.20;11.57;;;8.10;1.00;;;;;;5110637;27;20476;-80
2024/02/13 08:47:43;;;;;;;23.47;9.83;;;8.10;1.00;;;;;;5108486;27;21083;-77
2024/02/13 08:50:12;;;;;;;12.43;8.80;;;8.20;1.00;;;;;;5105646;27;20474;-77
2024/02/13 08:52:39;;;;;;;10.90;9.10;;;8.20;1.00;;;;;;5108545;27;21196;-79
2024/02/13 08:55:08;;;;;;;10.60;8.93;;;8.10;1.00;;;;;;5107531;27;20527;-79
2024/02/13 08:57:37;;;;;;;13.20;7.72;;;8.10;1.00;;;;;;5107568;27;22379;-79
2024/02/13 09:00:05;;;;;;;13.03;8.97;;;8.00;1.00;;;;;;5109920;27;20322;-80
2024/02/13 09:02:33;;;;;;;11.67;9.53;;;8.00;1.00;;;;;;5109460;27;21313;-80
2024/02/13 09:05:01;;;;;;;15.67;10.00;;;8.10;1.00;;;;;;5099835;27;20497;-80
2024/02/13 09:07:28;;;;;;;10.60;7.17;;;8.10;1.00;;;;;;5088655;27;20504;-79
2024/02/13 09:09:56;;;;;;;11.10;8.83;;;8.10;1.00;;;;;;5099748;27;20582;-77
2024/02/13 09:12:24;;;;;;;9.53;7.67;;;8.10;1.00;;;;;;5110823;27;20542;-80
2024/02/13 09:14:51;;;;;;;28.10;11.10;;;8.20;1.00;;;;;;5104655;27;20478;-79
2024/02/13 09:17:17;;;;;;;10.70;8.00;;;8.20;1.00;;;;;;5106546;27;20532;-80
2024/02/13 09:19:46;;;;;;;12.30;8.37;;;8.30;1.00;;;;;;5108487;27;20462;-79
2024/02/13 09:22:13;;;;;;;12.03;7.67;;;8.30;1.00;;;;;;5107620;27;21185;-77
2024/02/13 09:24:44;;;;;;;14.90;8.10;;;8.50;1.00;;;;;;5106168;27;20470;-79
2024/02/13 09:27:13;;;;;;;8.30;7.50;;;8.70;1.00;;;;;;5106697;27;20428;-79
2024/02/13 09:29:40;;;;;;;11.63;8.07;;;8.80;1.00;;;;;;5105251;27;20968;-79
2024/02/13 09:32:08;;;;;;;13.20;7.50;;;8.90;1.00;;;;;;5108020;27;20781;-77
2024/02/13 09:34:34;;;;;;;9.30;7.60;;;9.10;1.00;;;;;;5104064;27;20477;-78
2024/02/13 09:37:03;;;;;;;11.60;7.87;;;9.10;1.00;;;;;;5104740;27;20475;-80
2024/02/13 09:39:30;;;;;;;16.10;8.47;;;9.30;1.00;;;;;;5105626;27;20503;-80
2024/02/13 09:41:58;;;;;;;10.90;7.10;;;9.50;1.00;;;;;;5106406;27;20517;-73
2024/02/13 09:44:27;;;;;;;11.50;7.33;;;9.40;1.00;;;;;;5103901;27;20460;-74
2024/02/13 09:46:54;;;;;;;9.77;7.60;;;9.40;1.00;;;;;;5104127;27;20449;-74
2024/02/13 09:49:23;;;;;;;8.50;7.03;;;9.40;1.00;;;;;;5109429;27;20430;-74
2024/02/13 09:51:52;;;;;;;12.50;6.93;;;9.60;1.00;;;;;;5103082;27;21231;-74
2024/02/13 09:54:23;;;;;;;11.40;7.87;;;10.20;1.00;;;;;;5105639;27;20468;-73
2024/02/13 09:56:51;;;;;;;8.30;6.60;;;10.50;1.00;;;;;;5104154;27;20545;-74
2024/02/13 09:59:22;;;;;;;11.20;7.10;;;10.70;1.00;;;;;;5106078;27;20450;-74
2024/02/13 10:01:52;;;;;;;8.63;6.83;;;10.70;1.00;;;;;;5101571;27;20628;-73
2024/02/13 10:04:20;;;;;;;19.43;8.33;;;10.80;1.00;;;;;;5105557;27;20582;-74
2024/02/13 10:06:50;;;;;;;8.80;6.60;;;10.70;1.00;;;;;;5102003;27;20454;-74
2024/02/13 10:09:18;;;;;;;9.77;6.13;;;10.70;1.00;;;;;;5103527;27;20446;-74
2024/02/13 10:11:48;;;;;;;19.40;8.43;;;10.80;1.00;;;;;;5105487;27;20460;-73
2024/02/13 10:14:21;;;;;;;9.30;6.93;;;10.90;1.00;;;;;;5103964;27;20469;-73
2024/02/13 10:16:50;;;;;;;7.57;6.10;;;10.90;1.00;;;;;;5102696;27;20596;-74
2024/02/13 10:19:20;;;;;;;13.03;7.00;;;11.00;1.00;;;;;;5104498;27;20480;-72
2024/02/13 10:21:49;;;;;;;8.73;5.97;;;11.10;1.00;;;;;;5104613;27;20829;-74
2024/02/13 10:24:17;;;;;;;5.93;5.30;;;11.00;1.00;;;;;;5105904;27;20477;-72
2024/02/13 10:26:44;;;;;;;15.73;10.50;;;11.10;1.00;;;;;;5104571;27;20458;-74
2024/02/13 10:29:13;;;;;;;11.10;6.33;;;11.20;1.00;;;;;;5102603;27;20518;-75
2024/02/13 10:31:40;;;;;;;8.47;5.07;;;11.30;1.00;;;;;;5085921;28;20462;-74
2024/02/13 10:34:09;;;;;;;12.23;7.47;;;11.10;1.00;;;;;;5108738;27;20567;-74
2024/02/13 10:36:37;;;;;;;26.80;8.60;;;11.40;1.00;;;;;;5102893;27;20450;-73
2024/02/13 10:39:08;;;;;;;6.20;5.10;;;11.50;1.00;;;;;;5102880;27;20804;-75
2024/02/13 10:41:40;;;;;;;5.83;4.80;;;11.60;1.00;;;;;;5102889;27;20811;-74
2024/02/13 10:44:10;;;;;;;6.93;4.70;;;11.70;1.00;;;;;;5103418;27;20584;-75
2024/02/13 10:46:40;;;;;;;8.40;5.27;;;11.70;1.00;;;;;;5103684;27;20594;-75
2024/02/13 10:49:19;;;;;;;5.30;4.43;;;11.60;1.00;;;;;;5104338;27;20549;-75
2024/02/13 10:51:46;;;;;;;6.83;3.97;;;11.60;1.00;;;;;;5083847;27;20458;-74
2024/02/13 10:54:15;;;;;;;7.10;4.43;;;11.30;1.00;;;;;;5105743;27;20470;-74
2024/02/13 10:56:42;;;;;;;7.53;3.67;;;11.10;1.00;;;;;;5105657;27;20956;-74
2024/02/13 10:59:11;;;;;;;4.40;4.00;;;11.00;1.00;;;;;;5104468;27;20454;-73
2024/02/13 11:01:43;;;;;;;4.63;3.87;;;11.10;1.00;;;;;;5100009;27;20515;-73
2024/02/13 11:04:12;;;;;;;4.00;3.40;;;11.00;1.00;;;;;;5105105;27;20477;-74
2024/02/13 11:06:39;;;;;;;6.90;4.27;;;11.00;1.00;;;;;;5104428;27;20461;-73
2024/02/13 11:09:12;;;;;;;4.80;2.70;;;10.70;1.00;;;;;;5103935;27;21709;-73
2024/02/13 11:11:39;;;;;;;3.83;2.93;;;10.50;1.00;;;;;;5102162;27;21020;-75
2024/02/13 11:14:16;;;;;;;6.80;3.70;;;10.60;1.00;;;;;;5106437;27;20531;-74
2024/02/13 11:16:52;;;;;;;12.70;3.80;;;10.60;1.00;;;;;;5107578;27;20878;-74
2024/02/13 11:19:20;;;;;;;2.80;2.57;;;10.70;1.00;;;;;;5110305;27;20538;-73
2024/02/13 11:21:51;;;;;;;4.30;2.40;;;10.60;1.00;;;;;;5107369;27;20474;-76
2024/02/13 11:24:22;;;;;;;6.57;3.50;;;10.60;1.00;;;;;;5109265;27;20469;-74
2024/02/13 11:26:49;;;;;;;6.20;2.93;;;10.80;1.00;;;;;;5104472;27;20953;-75
2024/02/13 11:29:20;;;;;;;4.70;2.60;;;10.80;1.00;;;;;;5106588;27;21026;-74
2024/02/13 11:31:58;;;;;;;2.97;2.67;;;10.90;1.00;;;;;;5104513;27;20518;-73
2024/02/13 11:34:39;;;;;;;5.13;2.37;;;11.10;1.00;;;;;;5106388;27;20573;-74
2024/02/13 11:37:16;;;;;;;2.80;2.10;;;11.20;1.00;;;;;;5107496;27;20441;-74
2024/02/13 11:39:44;;;;;;;7.10;3.20;;;11.40;1.00;;;;;;5106318;27;20931;-75
2024/02/13 11:42:18;;;;;;;8.13;2.60;;;11.60;1.00;;;;;;5107185;27;21049;-74
2024/02/13 11:44:48;;;;;;;2.43;2.00;;;12.10;1.00;;;;;;5105468;27;20589;-73
2024/02/13 11:47:19;;;;;;;2.63;2.17;;;13.20;1.00;;;;;;5106970;27;20454;-73
2024/02/13 11:49:49;;;;;;;12.90;9.30;;;13.30;1.00;;;;;;5108244;27;20845;-75
2024/02/13 11:52:16;;;;;;;10.17;3.10;;;13.30;1.00;;;;;;5108120;27;20490;-73
2024/02/13 11:54:46;;;;;;;2.93;2.00;;;13.40;1.00;;;;;;5107287;27;20488;-74
2024/02/13 11:57:13;;;;;;;7.73;2.87;;;13.80;1.00;;;;;;5104931;27;20457;-74
2024/02/13 11:59:40;;;;;;;5.10;2.30;;;15.10;1.00;;;;;;5092711;27;20492;-75
2024/02/13 12:02:12;;;;;;;4.93;2.80;;;16.20;1.00;;;;;;5108316;27;20478;-76
2024/02/13 12:04:43;;;;;;;5.17;2.50;;;16.30;1.00;;;;;;5108783;27;20597;-75
2024/02/13 12:07:11;;;;;;;4.60;2.63;;;16.40;1.00;;;;;;5105557;27;20555;-74
2024/02/13 12:09:40;;;;;;;9.97;3.73;;;16.50;1.00;;;;;;5108965;27;20548;-75
2024/02/13 12:12:09;;;;;;;6.73;2.30;;;17.10;1.00;;;;;;5091146;27;20454;-75
2024/02/13 12:14:39;;;;;;;8.43;3.37;;;18.20;1.00;;;;;;5110072;27;20474;-76
2024/02/13 12:17:07;;;;;;;4.37;2.33;;;18.80;1.00;;;;;;5110420;27;20453;-73
2024/02/13 12:19:37;;;;;;;7.37;3.53;;;18.20;1.00;;;;;;5105489;27;20429;-73
2024/02/13 12:22:13;;;;;;;8.17;3.70;;;17.50;1.00;;;;;;5109439;27;20846;-74
2024/02/13 12:24:42;;;;;;;7.43;3.40;;;16.40;1.00;;;;;;5097188;27;20472;-75
2024/02/13 12:27:12;;;;;;;4.70;2.30;;;15.40;1.00;;;;;;5107236;27;20468;-76
2024/02/13 12:29:41;;;;;;;6.87;2.73;;;15.10;1.00;;;;;;5110537;27;20586;-73
2024/02/13 12:32:09;;;;;;;2.40;2.03;;;15.00;1.00;;;;;;5107333;27;20565;-75
2024/02/13 12:34:38;;;;;;;3.80;2.30;;;15.00;1.00;;;;;;5105655;27;20557;-74
2024/02/13 12:37:08;;;;;;;3.77;2.20;;;14.80;1.00;;;;;;5107261;27;20460;-74
2024/02/13 12:39:37;;;;;;;6.80;2.70;;;15.10;1.00;;;;;;5106135;27;20467;-75
2024/02/13 12:42:10;;;;;;;3.27;2.07;;;16.60;1.00;;;;;;5103994;27;21250;-73
2024/02/13 12:44:39;;;;;;;8.73;2.97;;;17.50;1.00;;;;;;5106412;27;20470;-76
2024/02/13 12:47:07;;;;;;;2.70;1.90;;;18.70;1.00;;;;;;5108124;27;20455;-74
2024/02/13 12:49:37;;;;;;;4.07;2.37;;;19.10;1.00;;;;;;5105532;27;20609;-74
2024/02/13 12:52:05;;;;;;;4.47;2.50;;;18.60;1.00;;;;;;5109147;27;20478;-74
2024/02/13 12:54:32;;;;;;;3.10;1.83;;;18.30;1.00;;;;;;5106019;27;20463;-74
2024/02/13 12:57:01;;;;;;;3.63;2.00;;;18.30;1.00;;;;;;5105266;27;20471;-75
2024/02/13 12:59:28;;;;;;;2.13;1.83;;;18.80;1.00;;;;;;5107287;27;20999;-74
2024/02/13 13:01:58;;;;;;;3.23;1.87;;;19.30;1.00;;;;;;5104447;27;20518;-75
2024/02/13 13:04:28;;;;;;;4.03;2.40;;;18.90;1.00;;;;;;5106485;27;20473;-74